Time;durP1;ratioP1;P1;durP2;ratioP2;P2;SDS_P1;SDS_P2;PMS_P1;PMS_P2;Temp;Humidity;BMP_temperature;BMP_pressure;BME280_temperature;BME280_humidity;BME280_pressure;Samples;Min_cycle;Max_cycle;Signal;HPM_P1;HPM_P2
2021/03/05 00:00:38;;;;;;;4.72;2.87;;;11.00;65.70;;;;;;2569840;53;20958;-69
2021/03/05 00:03:07;;;;;;;5.12;2.85;;;11.00;65.80;;;;;;2556333;53;21857;-69
2021/03/05 00:05:34;;;;;;;5.03;2.72;;;11.00;65.90;;;;;;2323172;54;20957;-69
2021/03/05 00:08:04;;;;;;;4.03;2.20;;;11.00;66.30;;;;;;2571211;53;21086;-69
2021/03/05 00:10:32;;;;;;;4.32;2.17;;;11.00;66.10;;;;;;2322336;54;20994;-69
2021/03/05 00:12:58;;;;;;;5.10;2.30;;;11.00;66.30;;;;;;2558155;53;21062;-69
2021/03/05 00:15:26;;;;;;;5.62;2.20;;;11.00;66.40;;;;;;2323935;54;20985;-69
2021/03/05 00:17:54;;;;;;;4.10;2.10;;;11.00;66.40;;;;;;2328433;54;21011;-69
2021/03/05 00:20:22;;;;;;;4.70;2.15;;;11.00;66.40;;;;;;2329148;53;20926;-69
2021/03/05 00:22:49;;;;;;;3.97;1.90;;;11.00;66.50;;;;;;2570734;53;21431;-69
2021/03/05 00:25:17;;;;;;;3.10;1.62;;;11.00;66.50;;;;;;2327228;54;20978;-69
2021/03/05 00:27:46;;;;;;;4.32;1.67;;;11.00;66.60;;;;;;2559041;53;20938;-70
2021/03/05 00:30:13;;;;;;;4.20;2.00;;;11.10;66.70;;;;;;2324414;54;20969;-69
2021/03/05 00:32:40;;;;;;;3.55;1.70;;;11.00;66.70;;;;;;2557596;53;20980;-70
2021/03/05 00:35:08;;;;;;;5.00;2.03;;;11.10;66.80;;;;;;2336945;54;20952;-69
2021/03/05 00:37:34;;;;;;;3.60;1.87;;;11.00;66.80;;;;;;2556323;53;20958;-69
2021/03/05 00:40:01;;;;;;;4.55;1.98;;;11.00;66.80;;;;;;2323668;53;20906;-69
2021/03/05 00:42:29;;;;;;;5.72;2.15;;;11.10;67.00;;;;;;2570090;53;20934;-69
2021/03/05 00:44:55;;;;;;;3.72;1.83;;;11.10;67.00;;;;;;2323728;54;20970;-69
2021/03/05 00:47:22;;;;;;;3.83;2.03;;;11.10;67.00;;;;;;2566919;53;20908;-69
2021/03/05 00:49:48;;;;;;;4.20;2.10;;;11.10;67.00;;;;;;2328094;54;21041;-69
2021/03/05 00:52:15;;;;;;;4.68;2.42;;;11.10;67.00;;;;;;2562836;53;20989;-69
2021/03/05 00:54:44;;;;;;;4.40;2.20;;;11.10;67.10;;;;;;2529702;53;21037;-69
2021/03/05 00:57:11;;;;;;;6.43;3.45;;;11.10;67.10;;;;;;2556475;53;20973;-69
2021/03/05 00:59:37;;;;;;;6.22;3.20;;;11.20;67.40;;;;;;2327494;54;21035;-69
2021/03/05 01:02:05;;;;;;;5.37;2.92;;;11.10;67.20;;;;;;2325101;54;21437;-69
2021/03/05 01:04:31;;;;;;;6.97;3.25;;;11.10;67.20;;;;;;2556535;53;20974;-69
2021/03/05 01:06:57;;;;;;;6.50;3.97;;;11.10;67.20;;;;;;2556945;53;20939;-69
2021/03/05 01:09:25;;;;;;;6.85;4.15;;;11.10;67.10;;;;;;2308636;54;21502;-69
2021/03/05 01:11:51;;;;;;;8.15;4.47;;;11.10;67.10;;;;;;2569967;53;20939;-69
2021/03/05 01:14:19;;;;;;;8.68;4.80;;;11.10;67.10;;;;;;2558045;53;20971;-69
2021/03/05 01:16:45;;;;;;;8.85;5.00;;;11.10;67.00;;;;;;2553312;53;20982;-69
2021/03/05 01:19:13;;;;;;;7.22;4.25;;;11.10;66.90;;;;;;2555807;53;20974;-68
2021/03/05 01:21:39;;;;;;;8.68;4.55;;;11.10;66.90;;;;;;2322350;53;20991;-69
2021/03/05 01:24:08;;;;;;;7.07;4.32;;;11.10;66.90;;;;;;2556218;53;21009;-69
2021/03/05 01:26:34;;;;;;;7.65;5.07;;;11.10;66.80;;;;;;2335989;54;21084;-69
2021/03/05 01:29:01;;;;;;;9.45;6.03;;;11.00;66.70;;;;;;2330914;54;20959;-69
2021/03/05 01:31:27;;;;;;;10.25;6.03;;;11.00;66.60;;;;;;2332145;54;20997;-69
2021/03/05 01:33:53;;;;;;;9.45;5.93;;;11.00;66.50;;;;;;2326342;54;21007;-69
2021/03/05 01:36:21;;;;;;;11.02;6.95;;;11.00;66.40;;;;;;2572098;53;21511;-69
2021/03/05 01:38:47;;;;;;;11.63;8.02;;;11.00;66.30;;;;;;2323448;54;21013;-69
2021/03/05 01:41:13;;;;;;;10.70;6.68;;;10.90;66.20;;;;;;2328910;54;20974;-69
2021/03/05 01:43:40;;;;;;;10.82;7.32;;;10.90;66.10;;;;;;2322829;54;20972;-69
2021/03/05 01:46:06;;;;;;;11.05;7.03;;;10.90;66.20;;;;;;2330041;54;20982;-69
2021/03/05 01:48:34;;;;;;;10.88;7.37;;;10.80;66.80;;;;;;2556664;53;20994;-69
2021/03/05 01:51:20;;;;;;;10.65;7.28;;;10.80;66.10;;;;;;2334027;54;21518;-69
2021/03/05 01:53:47;;;;;;;12.52;7.57;;;10.80;65.90;;;;;;2324568;54;20938;-69
2021/03/05 01:56:47;;;;;;;10.60;6.85;;;10.80;66.10;;;;;;2315939;54;20922;-69
2021/03/05 01:59:19;;;;;;;10.45;6.62;;;10.70;65.90;;;;;;2571344;53;20912;-69
2021/03/05 02:01:46;;;;;;;11.50;7.43;;;10.70;66.10;;;;;;2321729;54;20925;-69
2021/03/05 02:04:12;;;;;;;11.52;7.85;;;10.70;66.20;;;;;;2555907;53;20922;-69
2021/03/05 02:06:49;;;;;;;11.15;6.93;;;10.70;66.30;;;;;;2569434;53;21022;-69
2021/03/05 02:09:15;;;;;;;11.43;7.90;;;10.60;66.20;;;;;;2557040;53;20970;-68
2021/03/05 02:11:41;;;;;;;11.32;8.20;;;10.60;66.20;;;;;;2328541;54;20918;-69
2021/03/05 02:14:08;;;;;;;10.15;7.07;;;10.60;66.30;;;;;;2557460;53;20941;-69
2021/03/05 02:21:03;;;;;;;14.23;8.23;;;10.60;66.30;;;;;;2571905;53;21065;-68
2021/03/05 02:24:06;;;;;;;10.55;6.37;;;10.60;65.90;;;;;;2345436;54;20950;-69
2021/03/05 02:30:22;;;;;;;11.73;7.18;;;10.60;66.00;;;;;;2329781;54;21009;-69
2021/03/05 02:33:05;;;;;;;9.38;6.03;;;10.50;65.50;;;;;;2558622;53;21005;-69
2021/03/05 02:35:31;;;;;;;9.32;6.53;;;10.50;66.00;;;;;;2323710;54;20990;-69
2021/03/05 02:38:01;;;;;;;11.98;7.90;;;10.40;66.00;;;;;;2557912;53;21913;-68
2021/03/05 02:40:34;;;;;;;12.85;9.48;;;10.40;66.00;;;;;;2327108;54;21043;-68
2021/03/05 02:43:02;;;;;;;13.02;8.82;;;10.40;66.00;;;;;;2562501;53;21542;-68
2021/03/05 02:45:34;;;;;;;12.02;8.77;;;10.30;65.90;;;;;;2330912;54;21006;-69
2021/03/05 02:48:02;;;;;;;;;;;10.30;65.80;;;;;;2582467;53;21481;-68
2021/03/05 02:50:31;;;;;;;10.82;7.35;;;10.30;65.30;;;;;;2329951;54;20128;-68
2021/03/05 02:53:01;;;;;;;10.57;7.45;;;10.20;65.70;;;;;;2541956;53;20966;-69
2021/03/05 02:55:28;;;;;;;12.57;9.15;;;10.20;65.70;;;;;;2331999;54;21741;-69
2021/03/05 02:57:56;;;;;;;12.10;8.88;;;10.10;65.70;;;;;;2560540;53;21001;-69
2021/03/05 03:00:24;;;;;;;11.75;8.43;;;10.10;65.80;;;;;;2328889;54;20966;-69
2021/03/05 03:02:57;;;;;;;12.15;8.95;;;10.10;65.90;;;;;;2557222;53;21070;-68
2021/03/05 03:05:24;;;;;;;14.90;8.82;;;10.00;65.90;;;;;;2326461;54;21102;-68
2021/03/05 03:07:51;;;;;;;11.10;8.15;;;10.00;65.90;;;;;;2322603;54;20977;-68
2021/03/05 03:10:19;;;;;;;11.57;8.20;;;10.00;65.90;;;;;;2555474;53;20945;-69
2021/03/05 03:12:47;;;;;;;11.85;8.45;;;10.00;66.00;;;;;;2557899;53;21026;-68
2021/03/05 03:15:14;;;;;;;12.25;8.98;;;9.90;67.00;;;;;;2319949;54;20958;-68
2021/03/05 03:17:42;;;;;;;11.45;8.55;;;9.90;67.00;;;;;;2557509;53;21379;-68
2021/03/05 03:20:12;;;;;;;13.18;9.38;;;9.90;67.10;;;;;;2558387;53;20962;-69
2021/03/05 03:22:39;;;;;;;13.38;9.38;;;9.80;67.00;;;;;;2323230;54;21479;-68
2021/03/05 03:25:07;;;;;;;11.40;8.35;;;9.80;67.00;;;;;;2322433;54;21006;-68
2021/03/05 03:27:33;;;;;;;12.37;8.77;;;9.80;67.10;;;;;;2324960;54;21054;-68
2021/03/05 03:30:00;;;;;;;14.02;9.65;;;9.80;67.10;;;;;;2570285;53;20942;-68
2021/03/05 03:32:26;;;;;;;13.20;8.35;;;9.70;66.90;;;;;;2557516;53;20914;-68
2021/03/05 03:34:53;;;;;;;15.77;8.93;;;9.70;66.90;;;;;;2327056;54;20958;-68
2021/03/05 03:37:19;;;;;;;13.62;8.13;;;9.70;66.50;;;;;;2558386;53;20943;-70
2021/03/05 03:39:45;;;;;;;14.75;8.35;;;9.60;66.10;;;;;;2322953;54;20967;-70
2021/03/05 03:42:15;;;;;;;11.77;6.55;;;9.50;65.80;;;;;;2326302;54;20982;-69
2021/03/05 03:44:42;;;;;;;12.90;7.12;;;9.40;65.40;;;;;;2573857;52;20950;-69
2021/03/05 03:47:11;;;;;;;13.73;7.40;;;9.30;65.20;;;;;;2323117;54;20954;-69
2021/03/05 03:49:47;;;;;;;13.25;6.47;;;9.20;65.00;;;;;;2333271;54;20985;-69
2021/03/05 03:52:25;;;;;;;14.18;7.43;;;9.10;65.00;;;;;;2323768;54;21617;-68
2021/03/05 03:54:52;;;;;;;13.82;7.35;;;9.00;64.90;;;;;;2326568;54;21009;-68
2021/03/05 03:57:21;;;;;;;12.88;6.57;;;8.90;64.90;;;;;;2334333;54;20974;-69
2021/03/05 03:59:54;;;;;;;13.10;6.37;;;8.80;65.00;;;;;;2324432;54;21010;-69
2021/03/05 04:02:21;;;;;;;13.23;6.50;;;8.70;65.00;;;;;;2313902;54;21000;-69
2021/03/05 04:04:47;;;;;;;10.02;5.25;;;8.70;65.20;;;;;;2322613;54;20966;-69
2021/03/05 04:07:14;;;;;;;12.00;6.12;;;8.60;65.30;;;;;;2322618;54;20942;-69
2021/03/05 04:09:40;;;;;;;13.80;6.47;;;8.50;65.40;;;;;;2309804;54;21217;-69
2021/03/05 04:12:07;;;;;;;11.27;6.00;;;8.50;65.60;;;;;;2563992;53;21263;-70
2021/03/05 04:14:36;;;;;;;12.30;6.78;;;8.40;65.50;;;;;;2556255;53;20930;-69
2021/03/05 04:17:07;;;;;;;12.55;6.25;;;8.40;65.70;;;;;;2308101;54;20961;-69
2021/03/05 04:19:33;;;;;;;12.73;6.60;;;8.30;65.70;;;;;;2330738;54;20974;-69
2021/03/05 04:21:59;;;;;;;14.15;7.05;;;8.30;65.80;;;;;;2331498;54;21033;-68
2021/03/05 04:24:26;;;;;;;13.27;6.50;;;8.30;65.90;;;;;;2556620;53;20953;-69
2021/03/05 04:26:52;;;;;;;13.18;6.25;;;8.20;65.90;;;;;;2333013;54;20962;-69
2021/03/05 04:29:18;;;;;;;14.65;6.78;;;8.20;66.00;;;;;;2322019;54;20950;-68
2021/03/05 04:31:45;;;;;;;13.68;7.57;;;8.20;66.10;;;;;;2326206;54;21057;-69
2021/03/05 04:34:11;;;;;;;13.27;6.72;;;8.10;66.00;;;;;;2321939;54;20954;-69
2021/03/05 04:36:39;;;;;;;13.05;6.15;;;8.10;66.10;;;;;;2324383;54;20946;-68
2021/03/05 04:39:05;;;;;;;12.63;7.07;;;8.10;66.10;;;;;;2335693;54;20942;-67
2021/03/05 04:41:31;;;;;;;12.85;6.95;;;8.00;66.10;;;;;;2557246;53;21001;-68
2021/03/05 04:43:58;;;;;;;11.90;6.20;;;8.00;66.30;;;;;;2556405;53;20956;-68
2021/03/05 04:46:25;;;;;;;14.02;6.75;;;8.00;66.40;;;;;;2327391;54;21037;-68
2021/03/05 04:48:54;;;;;;;12.37;6.35;;;7.90;66.40;;;;;;2324610;54;21482;-68
2021/03/05 04:51:21;;;;;;;14.13;6.40;;;7.90;66.50;;;;;;2324488;54;21006;-68
2021/03/05 04:53:47;;;;;;;14.48;7.07;;;8.00;66.70;;;;;;2325009;54;21003;-68
2021/03/05 04:56:14;;;;;;;13.60;6.05;;;7.90;66.60;;;;;;2323933;54;20997;-68
2021/03/05 04:58:40;;;;;;;12.85;6.12;;;7.90;66.60;;;;;;2556206;53;20963;-68
2021/03/05 05:01:08;;;;;;;14.25;6.75;;;7.90;66.60;;;;;;2327281;54;20942;-67
2021/03/05 05:03:37;;;;;;;12.68;6.25;;;7.90;66.70;;;;;;2557010;53;20958;-67
2021/03/05 05:06:03;;;;;;;15.15;6.18;;;7.90;66.80;;;;;;2323979;54;20965;-68
2021/03/05 05:08:30;;;;;;;10.95;5.70;;;7.90;66.90;;;;;;2557257;53;20972;-67
2021/03/05 05:10:56;;;;;;;12.30;6.30;;;7.90;66.90;;;;;;2327176;54;21022;-67
2021/03/05 05:13:22;;;;;;;13.52;6.80;;;7.90;67.00;;;;;;2325880;54;20967;-68
2021/03/05 05:15:48;;;;;;;14.45;7.03;;;7.90;67.00;;;;;;2567138;53;20940;-68
2021/03/05 05:18:15;;;;;;;13.20;6.55;;;7.90;67.00;;;;;;2332734;54;20962;-67
2021/03/05 05:20:41;;;;;;;13.30;7.22;;;7.90;66.90;;;;;;2323529;54;20898;-67
2021/03/05 05:23:07;;;;;;;15.70;7.25;;;7.90;66.90;;;;;;2330474;54;21515;-68
2021/03/05 05:25:34;;;;;;;17.87;8.18;;;7.90;66.90;;;;;;2335934;53;21051;-67
2021/03/05 05:28:00;;;;;;;13.23;6.47;;;7.90;66.80;;;;;;2322855;54;20942;-67
2021/03/05 05:30:27;;;;;;;12.00;6.28;;;7.90;66.90;;;;;;2325623;54;21005;-67
2021/03/05 05:32:53;;;;;;;14.95;7.00;;;7.90;67.00;;;;;;2557222;53;21010;-67
2021/03/05 05:35:20;;;;;;;11.63;6.62;;;7.90;66.90;;;;;;2567237;53;21695;-67
2021/03/05 05:37:47;;;;;;;14.48;6.85;;;7.90;66.90;;;;;;2559685;53;20965;-67
2021/03/05 05:40:14;;;;;;;13.52;6.45;;;7.90;66.90;;;;;;2556382;53;20950;-68
2021/03/05 05:42:41;;;;;;;12.45;6.55;;;7.90;66.90;;;;;;2312786;54;21113;-68
2021/03/05 05:45:08;;;;;;;16.02;7.37;;;7.90;67.00;;;;;;2327120;53;21431;-68
2021/03/05 05:47:38;;;;;;;14.45;7.28;;;7.90;67.00;;;;;;2323396;54;20951;-68
2021/03/05 05:50:06;;;;;;;14.57;7.70;;;7.90;66.90;;;;;;2325711;54;21017;-67
2021/03/05 05:52:35;;;;;;;15.35;7.93;;;7.90;66.90;;;;;;2556005;53;20962;-67
2021/03/05 05:55:03;;;;;;;15.75;8.05;;;7.90;67.70;;;;;;2555868;53;20989;-68
2021/03/05 05:57:30;;;;;;;15.57;7.95;;;7.90;67.00;;;;;;2569453;53;21014;-67
2021/03/05 05:59:59;;;;;;;14.38;7.28;;;7.80;66.90;;;;;;2559381;53;21186;-68
2021/03/05 06:02:26;;;;;;;15.27;7.72;;;7.80;66.80;;;;;;2331694;54;21026;-68
2021/03/05 06:05:04;;;;;;;14.80;7.55;;;7.80;66.80;;;;;;2558200;53;20995;-69
2021/03/05 06:07:31;;;;;;;17.20;8.05;;;7.80;66.70;;;;;;2323629;54;20958;-68
2021/03/05 06:10:05;;;;;;;15.00;7.97;;;7.80;66.80;;;;;;2530238;53;20942;-69
2021/03/05 06:12:32;;;;;;;17.15;7.65;;;7.80;66.90;;;;;;2555959;53;21459;-68
2021/03/05 06:14:58;;;;;;;15.18;8.18;;;7.70;66.80;;;;;;2322744;54;20958;-69
2021/03/05 06:17:40;;;;;;;15.85;7.87;;;7.70;66.90;;;;;;2566647;53;20934;-68
2021/03/05 06:20:09;;;;;;;15.77;8.50;;;7.70;66.80;;;;;;2342659;54;20978;-69
2021/03/05 06:22:36;;;;;;;18.30;9.68;;;7.70;67.00;;;;;;2323228;54;21831;-68
2021/03/05 06:25:06;;;;;;;20.30;9.77;;;7.70;67.00;;;;;;2332696;54;20989;-68
2021/03/05 06:27:32;;;;;;;16.35;8.63;;;7.70;67.00;;;;;;2556763;53;20962;-68
2021/03/05 06:29:58;;;;;;;20.55;8.70;;;7.70;67.00;;;;;;2322986;53;20906;-68
2021/03/05 06:32:35;;;;;;;15.68;8.05;;;7.70;67.10;;;;;;2334288;54;20920;-68
2021/03/05 06:35:03;;;;;;;16.42;8.15;;;7.60;66.90;;;;;;2557135;53;21010;-68
2021/03/05 06:37:46;;;;;;;16.33;8.63;;;7.70;67.10;;;;;;2322944;54;21061;-68
2021/03/05 06:40:27;;;;;;;16.12;8.20;;;7.60;66.90;;;;;;2589034;53;21113;-68
2021/03/05 06:42:54;;;;;;;17.55;9.40;;;7.60;67.00;;;;;;2327032;54;20921;-68
2021/03/05 06:45:22;;;;;;;15.75;8.20;;;7.60;67.10;;;;;;2555023;53;21512;-68
2021/03/05 06:48:07;;;;;;;16.40;7.65;;;7.60;67.10;;;;;;2556048;53;20910;-67
2021/03/05 06:50:43;;;;;;;15.15;7.72;;;7.60;67.00;;;;;;2323435;54;21034;-67
2021/03/05 06:53:24;;;;;;;16.40;9.05;;;7.60;67.10;;;;;;2322718;54;21039;-67
2021/03/05 06:55:50;;;;;;;14.63;7.22;;;7.60;67.10;;;;;;2334070;54;21831;-67
2021/03/05 06:58:16;;;;;;;15.52;7.47;;;7.60;67.20;;;;;;2556264;53;20954;-67
2021/03/05 07:00:42;;;;;;;14.50;7.80;;;7.60;67.30;;;;;;2325251;54;21090;-67
2021/03/05 07:03:21;;;;;;;16.42;8.25;;;7.60;67.40;;;;;;2561621;53;21054;-67
2021/03/05 07:05:49;;;;;;;16.98;8.55;;;7.60;67.40;;;;;;2562149;53;20942;-67
2021/03/05 07:08:37;;;;;;;17.95;8.52;;;7.60;67.50;;;;;;2555890;53;20942;-67
2021/03/05 07:11:04;;;;;;;16.90;8.85;;;7.60;67.20;;;;;;2334191;54;20946;-68
2021/03/05 07:13:47;;;;;;;16.77;8.50;;;7.60;67.40;;;;;;2329014;53;20943;-68
2021/03/05 07:16:13;;;;;;;16.50;8.27;;;7.60;67.20;;;;;;2312635;54;21005;-68
2021/03/05 07:18:39;;;;;;;15.93;7.85;;;7.60;67.40;;;;;;2578292;53;20931;-67
2021/03/05 07:21:09;;;;;;;16.90;8.73;;;7.60;67.50;;;;;;2321404;54;21009;-68
2021/03/05 07:23:35;;;;;;;16.05;8.77;;;7.60;67.50;;;;;;2333679;54;20946;-72
2021/03/05 07:26:02;;;;;;;17.20;8.50;;;7.60;67.50;;;;;;2328756;54;20902;-70
2021/03/05 07:28:28;;;;;;;18.52;9.35;;;7.60;67.60;;;;;;2326985;54;20972;-75
2021/03/05 07:30:54;;;;;;;17.90;9.00;;;7.60;67.70;;;;;;2562278;53;20942;-74
2021/03/05 07:33:21;;;;;;;15.05;7.90;;;7.70;67.70;;;;;;2556298;53;20969;-73
2021/03/05 07:35:48;;;;;;;17.67;9.30;;;7.70;67.80;;;;;;2571244;53;21013;-74
2021/03/05 07:38:15;;;;;;;17.45;8.52;;;7.70;67.90;;;;;;2322916;54;21699;-70
2021/03/05 07:40:44;;;;;;;15.82;8.30;;;7.70;67.80;;;;;;2559536;53;20962;-74
2021/03/05 07:43:11;;;;;;;16.17;8.68;;;7.70;67.90;;;;;;2324273;54;21005;-74
2021/03/05 07:45:37;;;;;;;15.88;8.20;;;7.80;68.00;;;;;;2571184;53;20902;-74
2021/03/05 07:48:08;;;;;;;15.52;8.05;;;7.80;68.10;;;;;;2555791;53;21857;-72
2021/03/05 07:50:34;;;;;;;17.50;9.05;;;7.80;68.10;;;;;;2556019;53;20962;-74
2021/03/05 07:53:01;;;;;;;18.83;9.52;;;7.80;68.10;;;;;;2570067;53;21026;-74
2021/03/05 07:55:43;;;;;;;19.42;9.52;;;7.90;68.20;;;;;;2323934;54;20982;-74
2021/03/05 07:58:10;;;;;;;16.75;9.88;;;7.90;67.90;;;;;;2557623;53;21435;-75
2021/03/05 08:00:50;;;;;;;17.58;9.15;;;7.90;68.00;;;;;;2327455;54;20998;-73
2021/03/05 08:03:18;;;;;;;20.02;10.43;;;8.00;67.90;;;;;;2322815;54;21839;-73
2021/03/05 08:05:46;;;;;;;21.98;9.60;;;8.00;68.10;;;;;;2570876;53;20922;-73
2021/03/05 08:08:25;;;;;;;18.87;9.45;;;8.00;68.10;;;;;;2529752;53;21050;-73
2021/03/05 08:10:59;;;;;;;20.40;9.85;;;8.00;67.90;;;;;;2558310;53;21038;-75
2021/03/05 08:13:51;;;;;;;18.65;10.00;;;8.10;68.00;;;;;;2325754;54;21054;-72
2021/03/05 08:16:33;;;;;;;21.42;10.77;;;8.10;67.90;;;;;;2322753;53;20974;-72
2021/03/05 08:20:01;;;;;;;20.42;10.02;;;8.10;67.70;;;;;;2564377;53;20966;-79
2021/03/05 08:22:27;;;;;;;26.52;11.02;;;8.10;67.40;;;;;;2556898;53;20951;-79
2021/03/05 08:25:20;;;;;;;21.20;10.48;;;8.10;67.70;;;;;;2557288;53;20997;-79
2021/03/05 08:27:47;;;;;;;19.10;9.45;;;8.10;67.60;;;;;;2565091;53;20965;-75
2021/03/05 08:30:19;;;;;;;18.42;9.48;;;8.10;67.60;;;;;;2309033;54;21033;-74
2021/03/05 08:32:58;;;;;;;20.12;9.52;;;8.10;67.70;;;;;;2330733;54;21037;-70
2021/03/05 08:35:57;;;;;;;18.10;9.60;;;8.10;67.70;;;;;;2556985;53;20990;-71
2021/03/05 08:38:45;;;;;;;18.60;9.80;;;8.20;67.30;;;;;;2326660;54;20974;-71
2021/03/05 08:41:17;;;;;;;17.90;9.10;;;8.20;67.50;;;;;;2328132;54;21034;-68
2021/03/05 08:43:43;;;;;;;;;;;8.20;67.70;;;;;;2561770;53;20926;-66
2021/03/05 08:46:10;;;;;;;18.50;9.13;;;8.20;67.10;;;;;;2331929;54;20102;-67
2021/03/05 08:48:44;;;;;;;20.77;9.82;;;8.20;67.80;;;;;;2323036;54;21003;-67
2021/03/05 08:51:20;;;;;;;17.50;9.05;;;8.20;67.80;;;;;;2556425;53;21077;-67
2021/03/05 08:53:54;;;;;;;16.52;9.00;;;8.20;67.90;;;;;;2324182;54;21018;-67
2021/03/05 08:56:28;;;;;;;21.02;10.77;;;8.30;67.90;;;;;;2327817;54;20954;-67
2021/03/05 08:59:04;;;;;;;19.83;9.73;;;8.30;68.00;;;;;;2328066;54;21392;-67
2021/03/05 09:01:34;;;;;;;19.48;10.55;;;8.30;67.90;;;;;;2560316;53;20985;-68
2021/03/05 09:04:17;;;;;;;19.65;10.60;;;8.30;67.90;;;;;;2343517;54;21733;-67
2021/03/05 09:06:53;;;;;;;18.98;9.50;;;8.30;67.70;;;;;;2322926;54;20982;-67
2021/03/05 09:09:33;;;;;;;21.73;10.63;;;8.30;67.70;;;;;;2323723;54;21033;-70
2021/03/05 09:12:13;;;;;;;22.55;10.80;;;8.30;67.70;;;;;;2331028;54;20966;-67
2021/03/05 09:14:42;;;;;;;21.73;9.73;;;8.30;67.50;;;;;;2322904;54;21013;-68
2021/03/05 09:17:09;;;;;;;18.85;9.93;;;8.30;67.60;;;;;;2331625;54;20973;-67
2021/03/05 09:19:48;;;;;;;16.83;9.07;;;8.30;67.80;;;;;;2563609;53;20946;-68
2021/03/05 09:22:30;;;;;;;20.15;10.45;;;8.30;67.70;;;;;;2323857;54;20979;-68
2021/03/05 09:25:06;;;;;;;15.45;8.07;;;8.30;67.60;;;;;;2306251;54;20977;-68
2021/03/05 09:27:34;;;;;;;16.98;8.52;;;8.30;67.70;;;;;;2556784;53;21481;-68
2021/03/05 09:30:14;;;;;;;16.87;8.65;;;8.30;67.90;;;;;;2329579;54;21881;-68
2021/03/05 09:32:54;;;;;;;16.85;9.18;;;8.30;67.70;;;;;;2324803;54;20945;-70
2021/03/05 09:35:29;;;;;;;17.58;9.13;;;8.30;67.70;;;;;;2556635;53;20978;-69
2021/03/05 09:37:56;;;;;;;15.82;8.35;;;8.30;67.90;;;;;;2332363;54;20974;-69
2021/03/05 09:40:23;;;;;;;15.80;8.82;;;8.30;67.90;;;;;;2558200;53;20998;-69
2021/03/05 09:42:56;;;;;;;15.00;8.43;;;8.30;68.00;;;;;;2569596;53;21050;-69
2021/03/05 09:45:50;;;;;;;15.75;8.65;;;8.40;68.10;;;;;;2556710;53;20966;-69
2021/03/05 09:50:57;;;;;;;17.62;8.75;;;8.40;68.10;;;;;;2324118;54;21010;-69
2021/03/05 09:53:30;;;;;;;14.43;7.47;;;8.40;67.60;;;;;;2570081;53;21767;-70
2021/03/05 09:56:02;;;;;;;16.02;8.07;;;8.40;68.00;;;;;;2556848;53;20898;-69
2021/03/05 09:58:29;;;;;;;17.50;8.37;;;8.50;68.00;;;;;;2335445;54;20935;-69
2021/03/05 10:00:55;;;;;;;14.60;8.30;;;8.50;68.00;;;;;;2555808;53;22067;-69
2021/03/05 10:03:22;;;;;;;15.20;7.72;;;8.50;68.10;;;;;;2557171;53;21406;-69
2021/03/05 10:05:49;;;;;;;14.25;8.10;;;8.50;68.00;;;;;;2336963;54;20970;-70
2021/03/05 10:08:36;;;;;;;15.07;8.05;;;8.50;68.00;;;;;;2331448;54;20955;-69
2021/03/05 10:11:07;;;;;;;15.35;8.35;;;8.50;67.80;;;;;;2558049;53;21630;-69
2021/03/05 10:13:50;;;;;;;17.25;8.65;;;8.50;68.20;;;;;;2578088;53;20939;-69
2021/03/05 10:16:24;;;;;;;16.50;8.55;;;8.60;68.20;;;;;;2326876;54;21498;-69
2021/03/05 10:19:04;;;;;;;15.18;8.65;;;8.60;68.30;;;;;;2555734;53;21010;-69
2021/03/05 10:21:30;;;;;;;15.00;8.43;;;8.60;68.40;;;;;;2557357;53;20962;-69
2021/03/05 10:23:57;;;;;;;14.93;8.15;;;8.70;68.50;;;;;;2334096;54;21463;-70
2021/03/05 10:26:26;;;;;;;13.98;7.65;;;8.70;68.60;;;;;;2557028;53;21941;-70
2021/03/05 10:29:02;;;;;;;13.90;7.32;;;8.70;68.70;;;;;;2328125;54;21059;-69
2021/03/05 10:31:51;;;;;;;13.77;7.18;;;8.80;68.80;;;;;;2327698;54;20970;-69
2021/03/05 10:34:22;;;;;;;12.52;7.65;;;8.90;68.70;;;;;;2571677;53;20931;-68
2021/03/05 10:36:49;;;;;;;14.48;7.70;;;8.90;68.90;;;;;;2555132;53;21022;-70
2021/03/05 10:39:16;;;;;;;13.07;7.37;;;9.00;68.80;;;;;;2324507;54;20966;-70
2021/03/05 10:41:49;;;;;;;11.63;6.55;;;9.00;68.60;;;;;;2560951;53;21015;-70
2021/03/05 10:44:16;;;;;;;13.90;7.87;;;9.00;68.40;;;;;;2308308;54;20954;-69
2021/03/05 10:46:42;;;;;;;12.63;7.10;;;9.00;68.70;;;;;;2556955;53;20926;-70
2021/03/05 10:49:08;;;;;;;15.90;8.75;;;9.10;69.00;;;;;;2556813;53;21062;-69
2021/03/05 10:51:35;;;;;;;14.35;8.25;;;9.20;69.40;;;;;;2321766;54;21021;-69
2021/03/05 10:54:01;;;;;;;16.08;8.88;;;9.30;69.60;;;;;;2569399;53;21030;-69
2021/03/05 10:56:32;;;;;;;19.33;8.73;;;9.30;69.70;;;;;;2557115;53;20942;-70
2021/03/05 10:58:59;;;;;;;14.43;8.82;;;9.40;69.50;;;;;;2326686;54;21062;-70
2021/03/05 11:01:25;;;;;;;13.62;8.00;;;9.40;69.40;;;;;;2325245;54;20941;-70
2021/03/05 11:03:51;;;;;;;15.60;8.60;;;9.50;69.50;;;;;;2562627;53;21912;-69
2021/03/05 11:06:19;;;;;;;14.15;8.25;;;9.60;70.10;;;;;;2563097;53;20973;-69
2021/03/05 11:08:45;;;;;;;14.25;8.65;;;9.70;70.30;;;;;;2324300;54;20982;-69
2021/03/05 11:11:12;;;;;;;15.75;8.90;;;9.80;70.50;;;;;;2323257;54;21045;-69
2021/03/05 11:13:49;;;;;;;14.35;8.07;;;9.90;70.80;;;;;;2335743;54;21031;-69
2021/03/05 11:16:16;;;;;;;13.62;8.23;;;10.10;69.90;;;;;;2324566;54;20966;-69
2021/03/05 11:18:43;;;;;;;14.32;8.00;;;10.20;69.80;;;;;;2327288;54;21295;-69
2021/03/05 11:21:10;;;;;;;15.90;8.85;;;10.30;70.30;;;;;;2569707;53;20910;-69
2021/03/05 11:23:36;;;;;;;14.35;8.23;;;10.50;70.90;;;;;;2325569;54;20934;-69
2021/03/05 11:26:02;;;;;;;12.57;7.87;;;10.70;71.30;;;;;;2565769;53;21006;-70
2021/03/05 11:28:29;;;;;;;14.02;7.75;;;10.90;71.10;;;;;;2557062;53;20946;-69
2021/03/05 11:30:55;;;;;;;12.95;7.55;;;11.00;70.30;;;;;;2327220;54;20914;-70
2021/03/05 11:33:21;;;;;;;11.88;7.00;;;11.20;69.70;;;;;;2325220;54;20978;-70
2021/03/05 11:35:48;;;;;;;11.70;7.60;;;11.20;69.60;;;;;;2323564;54;20974;-69
2021/03/05 11:38:15;;;;;;;10.75;7.05;;;11.30;68.60;;;;;;2569512;53;20997;-69
2021/03/05 11:40:44;;;;;;;12.25;7.62;;;11.40;68.90;;;;;;2556711;53;20982;-69
2021/03/05 11:43:10;;;;;;;11.75;6.65;;;11.40;68.60;;;;;;2322841;54;21363;-69
2021/03/05 11:45:36;;;;;;;14.52;7.55;;;11.50;68.30;;;;;;2569487;53;21030;-69
2021/03/05 11:48:05;;;;;;;12.77;7.55;;;11.50;68.30;;;;;;2327033;54;21154;-69
2021/03/05 11:50:31;;;;;;;12.63;7.35;;;11.60;67.80;;;;;;2556006;53;20990;-69
2021/03/05 11:52:57;;;;;;;12.13;7.22;;;11.60;67.40;;;;;;2334346;54;21518;-70
2021/03/05 11:55:24;;;;;;;11.48;7.37;;;11.60;67.00;;;;;;2556975;53;21038;-70
2021/03/05 11:57:51;;;;;;;11.27;7.15;;;11.60;66.90;;;;;;2568325;53;22085;-69
2021/03/05 12:00:18;;;;;;;11.80;7.22;;;11.60;66.50;;;;;;2557254;53;21932;-70
2021/03/05 12:02:44;;;;;;;12.88;7.95;;;11.60;66.00;;;;;;2321124;54;21023;-70
2021/03/05 12:05:15;;;;;;;12.65;7.60;;;11.60;65.50;;;;;;2318401;54;20998;-70
2021/03/05 12:07:41;;;;;;;13.73;7.65;;;11.50;65.00;;;;;;2572434;53;20944;-69
2021/03/05 12:10:11;;;;;;;11.75;6.65;;;11.40;64.70;;;;;;2332220;54;21030;-69
2021/03/05 12:12:37;;;;;;;11.35;6.40;;;11.30;64.70;;;;;;2321233;54;21002;-69
2021/03/05 12:15:05;;;;;;;11.82;6.87;;;11.20;64.60;;;;;;2331235;54;21011;-69
2021/03/05 12:17:31;;;;;;;13.07;7.72;;;11.10;64.80;;;;;;2569563;53;21014;-69
2021/03/05 12:19:58;;;;;;;11.70;7.18;;;11.10;65.40;;;;;;2324682;54;20993;-69
2021/03/05 12:22:24;;;;;;;13.02;7.53;;;11.00;65.80;;;;;;2326256;54;21085;-69
2021/03/05 12:24:55;;;;;;;11.35;6.47;;;11.00;66.40;;;;;;2327095;54;21026;-69
2021/03/05 12:27:24;;;;;;;10.25;6.53;;;11.10;67.10;;;;;;2305165;54;20945;-69
2021/03/05 12:29:51;;;;;;;11.30;7.57;;;11.10;67.60;;;;;;2326764;54;20989;-69
2021/03/05 12:32:18;;;;;;;12.75;7.07;;;11.20;67.90;;;;;;2556531;53;21028;-70
2021/03/05 12:34:45;;;;;;;11.12;7.03;;;11.30;68.10;;;;;;2322802;54;21065;-69
2021/03/05 12:37:14;;;;;;;11.75;7.10;;;11.40;67.70;;;;;;2323186;54;21037;-70
2021/03/05 12:39:40;;;;;;;10.70;6.68;;;11.40;67.30;;;;;;2322913;54;20977;-70
2021/03/05 12:42:07;;;;;;;10.45;6.12;;;11.60;67.80;;;;;;2566777;53;20964;-69
2021/03/05 12:44:33;;;;;;;9.38;6.05;;;11.60;67.30;;;;;;2561225;53;21403;-70
2021/03/05 12:47:00;;;;;;;8.82;5.70;;;11.60;66.90;;;;;;2332310;54;20963;-69
2021/03/05 12:49:27;;;;;;;9.23;5.90;;;11.70;67.00;;;;;;2556180;53;20974;-70
2021/03/05 12:51:54;;;;;;;10.75;6.60;;;11.70;67.60;;;;;;2557882;53;20993;-70
2021/03/05 12:54:20;;;;;;;10.40;6.22;;;11.80;68.00;;;;;;2557400;53;21364;-70
2021/03/05 12:56:46;;;;;;;9.68;6.07;;;12.00;68.00;;;;;;2323245;54;21870;-70
2021/03/05 12:59:14;;;;;;;8.57;5.20;;;12.00;67.30;;;;;;2336067;54;21571;-70
2021/03/05 13:01:40;;;;;;;9.60;6.07;;;12.10;66.60;;;;;;2322030;54;20926;-70
2021/03/05 13:04:06;;;;;;;9.82;5.82;;;12.10;66.10;;;;;;2334121;54;21022;-70
2021/03/05 13:06:33;;;;;;;9.20;5.47;;;12.00;65.60;;;;;;2556614;53;21343;-69
2021/03/05 13:09:00;;;;;;;9.00;5.72;;;12.00;65.20;;;;;;2330020;54;21499;-69